This is the latest recevied weather packets stored in our database for station/object EGPF. If no packets are shown the sender has not sent any weather packets the latest 10 day(s).
| Time | Temp. | Humidity | Pressure | Rain* | Wind** | Luminosity | Snow |
|---|---|---|---|---|---|---|---|
| 1777675402 | 10° C | 93% | 1016 hPa | - | - | - | - |
| 1777674806 | 10° C | 93% | 1016 hPa | - | - | - | - |
| 1777674206 | 10° C | 87% | 1016 hPa | - | - | - | - |
| 1777673605 | 10° C | 87% | 1016 hPa | - | - | - | - |
| 1777673010 | 10° C | 87% | 1016 hPa | - | - | - | - |
| 1777672409 | 10.56° C | 87% | 1017 hPa | - | - | - | - |
| 1777671809 | 10.56° C | 87% | 1017 hPa | - | - | - | - |
| 1777671206 | 10.56° C | 87% | 1017 hPa | - | - | - | - |
| 1777670609 | 11.67° C | 87% | 1017 hPa | - | - | - | - |
| 1777670003 | 11.67° C | 87% | 1017 hPa | - | - | - | - |
| 1777669403 | 11.67° C | 87% | 1017 hPa | - | - | - | - |
| 1777668805 | 10.56° C | 93% | 1017 hPa | - | - | - | - |
| 1777668210 | 10.56° C | 93% | 1017 hPa | - | - | - | - |
| 1777667606 | 10.56° C | 93% | 1017 hPa | - | - | - | - |
| 1777667005 | 12.78° C | 82% | 1020 hPa | - | - | - | - |
| 1777666403 | 12.78° C | 82% | 1020 hPa | - | - | - | - |
| 1777665805 | 12.78° C | 82% | 1020 hPa | - | - | - | - |
| 1777665207 | - | - | 1020 hPa | - | - | - | - |
| 1777664607 | - | - | 1020 hPa | - | - | - | - |
| 1777664007 | 13.89° C | 76% | 1020 hPa | - | - | - | - |
| 1777663411 | 15° C | 72% | 1019 hPa | - | - | - | - |
| 1777662802 | 15° C | 72% | 1019 hPa | - | - | - | - |
| 1777662208 | - | - | 1019 hPa | - | - | - | - |
| 1777661603 | 15° C | 62% | 1019 hPa | - | - | - | - |
| 1777661006 | 15° C | 62% | 1019 hPa | - | - | - | - |
* Rain since midnight (hover to see other rain measurements)
** Current wind speed in m/s (hover to see current wind gust speed)